AirNav   TITAN Aviation Fuels
 
 1054 users online  

60CL CHP Academy Airport
Bryte, California, USA

GOING TO BRYTE?


FAA INFORMATION EFFECTIVE 01 DECEMBER 2022

Location

FAA Identifier: 60CL
Lat/Long: 38-35-55.6580N 121-33-37.8430W
38-35.927633N 121-33.630717W
38.5987939,-121.5605119
(estimated)
Elevation: 20 ft. / 6 m (estimated)
Variation: 16E (1985)
From city: 2 miles NW of BRYTE, CA
Time zone: UTC -8 (UTC -7 during Daylight Saving Time)
Zip code: 95605

Airport Operations

Airport use: Private use. Permission required prior to landing
Activation date: 05/1977
Control tower: no
ARTCC: OAKLAND CENTER
FSS: RANCHO MURIETA FLIGHT SERVICE STATION
Attendance: UNATNDD
Wind indicator: yes
Segmented circle: no

Airport Communications

WX ASOS at SMF (6 nm N): PHONE 916-649-3996
WX ASOS at SAC (6 nm SE): PHONE 916-421-0923
WX AWOS-3 at MCC (9 nm NE): 125.975 (916-641-1272)
WX AWOS-3 at EDU (11 nm W): 119.025 (530-754-6839)
WX AWOS-3PT at MHR (13 nm E): 118.325 (916-366-3371)
WX AWOS-3P at DWA (14 nm W): 125.775 (530-750-2759)

Nearby radio navigation aids

VOR radial/distance  VOR name  Freq  Var
MCCr224/8.4MC CLELLAN VOR/DME109.2017E
SACr340/9.3SACRAMENTO VORTAC115.2017E
MYVr163/30.0MARYSVILLE VOR/DME110.8016E
ILAr124/35.8WILLIAMS VORTAC114.4018E
HNWr242/38.8HANGTOWN VOR/DME115.5017E

Airport Services

Runway Information

Runway 5/23

Dimensions: 1400 x 24 ft. / 427 x 7 m
Surface: asphalt
RUNWAY 5  RUNWAY 23
Traffic pattern: leftright

Runway 16/34

Dimensions: 1200 x 20 ft. / 366 x 6 m
Surface: asphalt
RUNWAY 16  RUNWAY 34
Traffic pattern: rightleft

Airport Ownership and Management from official FAA records

Ownership: Publicly-owned
Owner: CALIFORNIA HIGHWAY PATROL
601 N. 7TH STREET
SACRAMENTO, CA 95811
Phone (916) 843-3300
Manager: M. W. SEDAM
601 N. 7TH STREET
SACRAMENTO, CA 95811
Phone (916) 843-3300

Airport Operational Statistics

Aircraft based on the field: 2
Single engine airplanes: 1
Helicopters: 1
    

Additional Remarks

FOR CD CTC NORCAL APCH AT 916-361-6874.

Instrument Procedures

There are no published instrument procedures at 60CL.

Some nearby airports with instrument procedures:

KSMF - Sacramento International Airport (6 nm N)
KSAC - Sacramento Executive Airport (6 nm SE)
KMCC - Mc Clellan Airfield (9 nm NE)
KEDU - University Airport (11 nm W)
KMHR - Sacramento Mather Airport (13 nm E)
KDWA - Yolo County Airport (14 nm W)
O41 - Watts-Woodland Airport (15 nm W)
 
Loc | Ops | Rwys | IFR | FBO | Links
Com | Nav | Svcs | Stats | Notes

Sonoma Jet Center
 
Area around 60CL (CHP Academy Airport)
 
Road maps at: MapQuest Bing Google
 
Aerial photo
No photo
 
Sectional chart

 
Airport distance calculator
Flying to CHP Academy Airport? Find the distance to fly.

From to 60CL

Sunrise and sunset
Times for 06-Dec-2022
 Local
(UTC-8)
 Zulu
(UTC)
Morning civil twilight06:4114:41
Sunrise07:1115:11
Sunset16:4400:44
Evening civil twilight17:1301:13

Current date and time
Zulu (UTC)  07-Dec-2022 03:57:07
Local (UTC-8)  06-Dec-2022 19:57:07
 
METAR
KSMF 
6nm N 
070353Z 29004KT 10SM CLR 08/05 A3009 RMK AO2 SLP188 T00830050
KSAC 
7nm SE 
070353Z 00000KT CLR 08/06 A3009 RMK AO2 SLP190 T00830061 $
KMCC 
9nm NE 
070335Z AUTO 00000KT 10SM CLR 09/06 A3009 RMK AO2
KEDU 
11nm W 
070335Z AUTO 00000KT 10SM CLR 08/05 A3010 RMK AO1
KMHR 
14nm E 
070335Z AUTO 00000KT 10SM CLR 07/06 A3008 RMK A01
KDWA 
14nm W 
070335Z AUTO 00000KT 10SM SCT029 BKN037 OVC049 08/05 A3011 RMK AO2
TAF
KSMF 
6nm N 
061734Z 0618/0718 33007KT P6SM SCT020 BKN050 BKN100 FM062300 VRB05KT P6SM SCT250
KSAC 
7nm SE 
061734Z 0618/0718 VRB05KT P6SM BKN050 BKN150 FM062000 VRB05KT P6SM SCT250 FM070900 VRB02KT 4SM BR SCT250 FM071500 00000KT 1 1/2SM BR FEW250 FM071700 19002KT P6SM FEW250
KMCC 
9nm NE 
061734Z 0618/0718 31005KT P6SM SCT040 BKN050 BKN150 FM062000 VRB05KT P6SM SCT250 FM071100 VRB03KT 6SM BR SKC FM071500 VRB03KT 4SM BR SKC
KMHR 
14nm E 
062255Z 0623/0718 VRB05KT P6SM VCTS FEW050CB SCT250 TEMPO 0623/0624 3SM TSRA BKN040CB FM071100 VRB05KT 6SM BR SKC FM071700 00000KT P6SM SCT250
NOTAMs
Click for the latest NOTAMs
NOTAMs are issued by the DoD/FAA and will open in a separate window not controlled by AirNav.

 

 
 

Would you like to see your business listed on this page?

 If your business provides an interesting product or service to pilots, flight crews, aircraft, or users of the CHP Academy Airport, you should consider listing it here.  To start the listing process, click on the button below
 
Add a business
 

Other Pages about CHP Academy Airport

Update a link
 
Copyright © AirNav, LLC. All rights reserved. Privacy Policy  Contact